Torm Laura — OULU2 — position and weather

sailwx.info

Track history (hours):
 
Tides and Currents Weather Stations Pressure Air Temp Water Temp Dewpoint Dewpoint Depression Visibility Wind Speed Wind Dir Waves Ship Positions

Torm Laura

Last reported at 2017-Oct-02 05:46 UTC. Time now 2017-Dec-12 10:33 UTC.
Position N 30°59' E 032°19'.
Warning: this ship's position is months out of date.

Length 183 m; draft 11.7 m.

Type: Ship. MMSI: 220603000.

Date/timePositionNaut miles runAvg speedWind from/ knotsBaromVisibWave heightAir tempDewpointWater temp
2017-Oct-02 05:46N 30°59' E 032°19'2 8.7
2017-Oct-02 05:31N 31°01' E 032°19'4 8.8
2017-Oct-02 05:01N 31°05' E 032°19'5 9.0
2017-Oct-02 04:29N 31°10' E 032°20'4 6.2
2017-Oct-02 03:48N 31°14' E 032°21'9 1.1
2017-Oct-01 19:53N 31°23' E 032°18'11 7.3
2017-Oct-01 18:22N 31°32' E 032°11'512.5
2017-Oct-01 18:00N 31°35' E 032°07'  
2017-Sep-28 20:01N 36°19' E 014°42'014.3
2017-Sep-28 20:00N 36°19' E 014°42'714.2
2017-Sep-28 19:30N 36°21' E 014°33'714.1
2017-Sep-28 19:00N 36°24' E 014°25'713.9
2017-Sep-28 18:29N 36°26' E 014°16'613.7
2017-Sep-28 18:00N 36°28' E 014°09'58112.9
2017-Sep-26 20:47N 43°08' E 005°00'5 4.8
2017-Sep-26 19:42N 43°13' E 004°60'0 1.7
2017-Sep-26 19:30N 43°13' E 005°00'6 8.6
2017-Sep-26 18:49N 43°19' E 004°59'3 9.2
2017-Sep-26 18:30N 43°22' E 004°58'2 4.2
2017-Sep-26 18:00N 43°24' E 004°60'0 0.1
2017-Sep-26 17:30N 43°24' E 004°60'0 0.0
2017-Sep-26 16:58N 43°24' E 004°60'0 0.0
2017-Sep-26 16:28N 43°24' E 004°60'0 0.0
2017-Sep-26 15:58N 43°24' E 004°60'0 0.0
2017-Sep-26 15:28N 43°24' E 004°60'0 0.0
2017-Sep-26 14:58N 43°24' E 004°60'0 0.0
2017-Sep-26 14:28N 43°24' E 004°60'0 0.0
2017-Sep-26 13:58N 43°24' E 004°60'0 0.0
2017-Sep-26 13:22N 43°24' E 004°60'0 0.0
2017-Sep-26 12:58N 43°24' E 004°60'0 0.0
2017-Sep-26 12:28N 43°24' E 004°60'0 0.0
2017-Sep-26 11:58N 43°24' E 004°60'0 0.0
2017-Sep-26 11:28N 43°24' E 004°60'0 0.0
2017-Sep-26 10:58N 43°24' E 004°60'0 0.0
2017-Sep-26 10:28N 43°24' E 004°60'0 0.0
2017-Sep-26 09:58N 43°24' E 004°60'0 0.0
2017-Sep-26 09:28N 43°24' E 004°60'0 0.0
2017-Sep-26 08:58N 43°24' E 004°60'0 0.0
2017-Sep-26 08:25N 43°24' E 004°60'0 0.0
2017-Sep-26 07:58N 43°24' E 004°60'0 0.0
2017-Sep-26 07:28N 43°24' E 004°60'0 0.0
2017-Sep-26 06:58N 43°24' E 004°60'0 0.0
2017-Sep-26 06:28N 43°24' E 004°60'0 0.0
2017-Sep-26 05:58N 43°24' E 004°60'0 0.0
2017-Sep-26 05:28N 43°24' E 004°60'0 0.0
2017-Sep-26 04:58N 43°24' E 004°60'0 0.0
2017-Sep-26 04:28N 43°24' E 004°60'0 0.0
2017-Sep-26 03:58N 43°24' E 004°60'0 0.0
2017-Sep-26 03:28N 43°24' E 004°60'0 0.0
2017-Sep-26 02:58N 43°24' E 004°60'0 0.0
2017-Sep-26 02:28N 43°24' E 004°60'0 0.0
2017-Sep-26 01:58N 43°24' E 004°60'0 0.0
2017-Sep-26 01:28N 43°24' E 004°60'0 0.0
2017-Sep-26 00:55N 43°24' E 004°60'0 0.0
2017-Sep-26 00:28N 43°24' E 004°60'0 0.0
2017-Sep-25 23:55N 43°24' E 004°60'0 0.0
2017-Sep-25 23:28N 43°24' E 004°60'0 0.0
2017-Sep-25 22:58N 43°24' E 004°60'0 0.0
2017-Sep-25 22:28N 43°24' E 004°60'0 0.0
2017-Sep-25 21:55N 43°24' E 004°60'0 0.0
2017-Sep-25 21:28N 43°24' E 004°60'0 0.0
2017-Sep-25 20:58N 43°24' E 004°60'0 0.0
2017-Sep-25 20:28N 43°24' E 004°60'0 0.0
2017-Sep-25 19:58N 43°24' E 004°60'0 0.0
2017-Sep-25 19:28N 43°24' E 004°60'0 0.0
2017-Sep-25 18:58N 43°24' E 004°60'0 0.0
2017-Sep-25 18:28N 43°24' E 004°60'0 0.0
2017-Sep-25 17:58N 43°24' E 004°60'0 0.0
2017-Sep-25 17:28N 43°24' E 004°60'0 0.0
2017-Sep-25 16:58N 43°24' E 004°60'0 0.0
2017-Sep-25 16:28N 43°24' E 004°60'0 0.0
2017-Sep-25 15:58N 43°24' E 004°60'0 0.0
2017-Sep-25 15:28N 43°24' E 004°60'0 0.0
2017-Sep-25 14:58N 43°24' E 004°60'0 0.0
2017-Sep-25 14:28N 43°24' E 004°60'0 0.0
2017-Sep-25 13:58N 43°24' E 004°60'0 0.0
2017-Sep-25 13:28N 43°24' E 004°60'0 0.0
2017-Sep-25 12:58N 43°24' E 004°60'0 0.0
2017-Sep-25 12:28N 43°24' E 004°60'0 0.0
2017-Sep-25 11:58N 43°24' E 004°60'0 0.0
2017-Sep-25 11:28N 43°24' E 004°60'0 0.0
2017-Sep-25 10:58N 43°24' E 004°60'0 0.0
2017-Sep-25 10:28N 43°24' E 004°60'0 0.0
2017-Sep-25 09:32N 43°24' E 004°60'0 0.0
2017-Sep-25 09:23N 43°24' E 004°60'0 0.0
2017-Sep-25 08:59N 43°24' E 004°60'0 0.0
2017-Sep-25 08:23N 43°24' E 004°60'0 0.0
2017-Sep-25 07:59N 43°24' E 004°60'0 0.0
2017-Sep-25 07:29N 43°24' E 004°60'0 0.0
2017-Sep-25 06:59N 43°24' E 004°60'0 0.0
2017-Sep-25 06:26N 43°24' E 004°60'0 0.0
2017-Sep-25 05:50N 43°24' E 004°60'0 0.0
2017-Sep-25 05:29N 43°24' E 004°60'0 0.0
2017-Sep-25 04:59N 43°24' E 004°60'0 0.0
2017-Sep-25 04:17N 43°24' E 004°60'0 0.0
2017-Sep-25 03:56N 43°24' E 004°60'0 0.0
2017-Sep-25 03:26N 43°24' E 004°60'0 0.0
2017-Sep-25 02:59N 43°24' E 004°60'0 0.0
2017-Sep-25 01:47N 43°24' E 004°60'0 0.0
2017-Sep-25 00:50N 43°24' E 004°60'0 0.0
2017-Sep-25 00:29N 43°24' E 004°60'0 0.0
2017-Sep-24 23:53N 43°24' E 004°60'0 0.0
2017-Sep-24 23:20N 43°24' E 004°60'0 0.0
2017-Sep-24 22:56N 43°24' E 004°60'0 0.0
2017-Sep-24 22:02N 43°24' E 004°60'0 0.1
2017-Sep-24 21:59N 43°24' E 004°60'0 0.0
2017-Sep-24 21:29N 43°24' E 004°60'0 0.0
2017-Sep-24 20:59N 43°24' E 004°60'0 0.0
2017-Sep-24 20:29N 43°24' E 004°60'0 0.0
2017-Sep-24 19:59N 43°24' E 004°60'0 0.0
2017-Sep-24 19:29N 43°24' E 004°60'0 0.0
2017-Sep-24 18:59N 43°24' E 004°60'0 0.0
2017-Sep-24 18:17N 43°24' E 004°60'0 0.0
2017-Sep-24 17:59N 43°24' E 004°60'0 0.0
2017-Sep-24 17:29N 43°24' E 004°60'0 0.0
2017-Sep-24 16:59N 43°24' E 004°60'0 0.0
2017-Sep-24 16:29N 43°24' E 004°60'0 0.0
2017-Sep-24 15:59N 43°24' E 004°60'0 0.0
2017-Sep-24 15:29N 43°24' E 004°60'0 0.0
2017-Sep-24 14:59N 43°24' E 004°60'0 0.0
2017-Sep-24 14:29N 43°24' E 004°60'0 0.0
2017-Sep-24 13:59N 43°24' E 004°60'0 0.0
2017-Sep-24 13:29N 43°24' E 004°60'0 0.0
2017-Sep-24 12:59N 43°24' E 004°60'0 0.0
2017-Sep-24 12:29N 43°24' E 004°60'0 0.0
2017-Sep-24 11:59N 43°24' E 004°60'0 0.0
2017-Sep-24 11:23N 43°24' E 004°60'0 0.0
2017-Sep-24 10:56N 43°24' E 004°60'0 0.0
2017-Sep-24 10:29N 43°24' E 004°60'0 0.0
2017-Sep-24 09:59N 43°24' E 004°60'0 0.0
2017-Sep-24 09:29N 43°24' E 004°60'0 0.0
2017-Sep-24 08:59N 43°24' E 004°60'0 0.0
2017-Sep-24 08:29N 43°24' E 004°60'0 0.0
2017-Sep-24 07:59N 43°24' E 004°60'0 0.0
2017-Sep-24 07:20N 43°24' E 004°60'0 0.0
2017-Sep-24 06:59N 43°24' E 004°60'0 0.0
2017-Sep-24 06:26N 43°24' E 004°60'0 0.0
2017-Sep-24 05:59N 43°24' E 004°60'0 0.0
2017-Sep-24 05:29N 43°24' E 004°60'0 0.0
2017-Sep-24 04:59N 43°24' E 004°60'0 0.0
2017-Sep-24 04:26N 43°24' E 004°60'0 0.0
2017-Sep-24 03:56N 43°24' E 004°60'0 0.0
2017-Sep-24 03:29N 43°24' E 004°60'0 0.0
2017-Sep-24 02:59N 43°24' E 004°60'0 0.0
2017-Sep-24 02:29N 43°24' E 004°60'0 0.0
2017-Sep-24 01:56N 43°24' E 004°60'0 0.0
2017-Sep-24 01:29N 43°24' E 004°60'0 0.0
2017-Sep-24 00:59N 43°24' E 004°60'0 0.0
2017-Sep-24 00:26N 43°24' E 004°60'0 0.0
2017-Sep-23 23:59N 43°24' E 004°60'0 0.0
2017-Sep-23 23:29N 43°24' E 004°60'0 0.0
2017-Sep-23 22:59N 43°24' E 004°60'0 0.0
2017-Sep-23 22:29N 43°24' E 004°60'0 0.0
2017-Sep-23 21:59N 43°24' E 004°60'0 0.0
2017-Sep-23 21:29N 43°24' E 004°60'0 0.0
2017-Sep-23 20:56N 43°24' E 004°60'0 0.0
2017-Sep-23 20:29N 43°24' E 004°60'0 0.0
2017-Sep-23 19:44N 43°24' E 004°60'  
Track history (hours):
 
Tides and Currents Weather Stations Pressure Air Temp Water Temp Dewpoint Dewpoint Depression Visibility Wind Speed Wind Dir Waves Ship Positions

Torm Laura

Last reported at 2017-Oct-02 05:46 UTC. Time now 2017-Dec-12 10:33 UTC.
Position N 30°59' E 032°19'.
Warning: this ship's position is months out of date.

Length 183 m; draft 11.7 m.

Type: Ship. MMSI: 220603000.

Date/timePositionNaut miles runAvg speedWind from/ knotsBaromVisibWave heightAir tempDewpointWater temp
2017-Oct-02 05:46N 30°59' E 032°19'2 8.7
2017-Oct-02 05:31N 31°01' E 032°19'4 8.8
2017-Oct-02 05:01N 31°05' E 032°19'5 9.0
2017-Oct-02 04:29N 31°10' E 032°20'4 6.2
2017-Oct-02 03:48N 31°14' E 032°21'9 1.1
2017-Oct-01 19:53N 31°23' E 032°18'11 7.3
2017-Oct-01 18:22N 31°32' E 032°11'512.5
2017-Oct-01 18:00N 31°35' E 032°07'  
2017-Sep-28 20:01N 36°19' E 014°42'014.3
2017-Sep-28 20:00N 36°19' E 014°42'714.2
2017-Sep-28 19:30N 36°21' E 014°33'714.1
2017-Sep-28 19:00N 36°24' E 014°25'713.9
2017-Sep-28 18:29N 36°26' E 014°16'613.7
2017-Sep-28 18:00N 36°28' E 014°09'58112.9
2017-Sep-26 20:47N 43°08' E 005°00'5 4.8
2017-Sep-26 19:42N 43°13' E 004°60'0 1.7
2017-Sep-26 19:30N 43°13' E 005°00'6 8.6
2017-Sep-26 18:49N 43°19' E 004°59'3 9.2
2017-Sep-26 18:30N 43°22' E 004°58'2 4.2
2017-Sep-26 18:00N 43°24' E 004°60'0 0.1
2017-Sep-26 17:30N 43°24' E 004°60'0 0.0
2017-Sep-26 16:58N 43°24' E 004°60'0 0.0
2017-Sep-26 16:28N 43°24' E 004°60'0 0.0
2017-Sep-26 15:58N 43°24' E 004°60'0 0.0
2017-Sep-26 15:28N 43°24' E 004°60'0 0.0
2017-Sep-26 14:58N 43°24' E 004°60'0 0.0
2017-Sep-26 14:28N 43°24' E 004°60'0 0.0
2017-Sep-26 13:58N 43°24' E 004°60'0 0.0
2017-Sep-26 13:22N 43°24' E 004°60'0 0.0
2017-Sep-26 12:58N 43°24' E 004°60'0 0.0
2017-Sep-26 12:28N 43°24' E 004°60'0 0.0
2017-Sep-26 11:58N 43°24' E 004°60'0 0.0
2017-Sep-26 11:28N 43°24' E 004°60'0 0.0
2017-Sep-26 10:58N 43°24' E 004°60'0 0.0
2017-Sep-26 10:28N 43°24' E 004°60'0 0.0
2017-Sep-26 09:58N 43°24' E 004°60'0 0.0
2017-Sep-26 09:28N 43°24' E 004°60'0 0.0
2017-Sep-26 08:58N 43°24' E 004°60'0 0.0
2017-Sep-26 08:25N 43°24' E 004°60'0 0.0
2017-Sep-26 07:58N 43°24' E 004°60'0 0.0
2017-Sep-26 07:28N 43°24' E 004°60'0 0.0
2017-Sep-26 06:58N 43°24' E 004°60'0 0.0
2017-Sep-26 06:28N 43°24' E 004°60'0 0.0
2017-Sep-26 05:58N 43°24' E 004°60'0 0.0
2017-Sep-26 05:28N 43°24' E 004°60'0 0.0
2017-Sep-26 04:58N 43°24' E 004°60'0 0.0
2017-Sep-26 04:28N 43°24' E 004°60'0 0.0
2017-Sep-26 03:58N 43°24' E 004°60'0 0.0
2017-Sep-26 03:28N 43°24' E 004°60'0 0.0
2017-Sep-26 02:58N 43°24' E 004°60'0 0.0
2017-Sep-26 02:28N 43°24' E 004°60'0 0.0
2017-Sep-26 01:58N 43°24' E 004°60'0 0.0
2017-Sep-26 01:28N 43°24' E 004°60'0 0.0
2017-Sep-26 00:55N 43°24' E 004°60'0 0.0
2017-Sep-26 00:28N 43°24' E 004°60'0 0.0
2017-Sep-25 23:55N 43°24' E 004°60'0 0.0
2017-Sep-25 23:28N 43°24' E 004°60'0 0.0
2017-Sep-25 22:58N 43°24' E 004°60'0 0.0
2017-Sep-25 22:28N 43°24' E 004°60'0 0.0
2017-Sep-25 21:55N 43°24' E 004°60'0 0.0
2017-Sep-25 21:28N 43°24' E 004°60'0 0.0
2017-Sep-25 20:58N 43°24' E 004°60'0 0.0
2017-Sep-25 20:28N 43°24' E 004°60'0 0.0
2017-Sep-25 19:58N 43°24' E 004°60'0 0.0
2017-Sep-25 19:28N 43°24' E 004°60'0 0.0
2017-Sep-25 18:58N 43°24' E 004°60'0 0.0
2017-Sep-25 18:28N 43°24' E 004°60'0 0.0
2017-Sep-25 17:58N 43°24' E 004°60'0 0.0
2017-Sep-25 17:28N 43°24' E 004°60'0 0.0
2017-Sep-25 16:58N 43°24' E 004°60'0 0.0
2017-Sep-25 16:28N 43°24' E 004°60'0 0.0
2017-Sep-25 15:58N 43°24' E 004°60'0 0.0
2017-Sep-25 15:28N 43°24' E 004°60'0 0.0
2017-Sep-25 14:58N 43°24' E 004°60'0 0.0
2017-Sep-25 14:28N 43°24' E 004°60'0 0.0
2017-Sep-25 13:58N 43°24' E 004°60'0 0.0
2017-Sep-25 13:28N 43°24' E 004°60'0 0.0
2017-Sep-25 12:58N 43°24' E 004°60'0 0.0
2017-Sep-25 12:28N 43°24' E 004°60'0 0.0
2017-Sep-25 11:58N 43°24' E 004°60'0 0.0
2017-Sep-25 11:28N 43°24' E 004°60'0 0.0
2017-Sep-25 10:58N 43°24' E 004°60'0 0.0
2017-Sep-25 10:28N 43°24' E 004°60'0 0.0
2017-Sep-25 09:32N 43°24' E 004°60'0 0.0
2017-Sep-25 09:23N 43°24' E 004°60'0 0.0
2017-Sep-25 08:59N 43°24' E 004°60'0 0.0
2017-Sep-25 08:23N 43°24' E 004°60'0 0.0
2017-Sep-25 07:59N 43°24' E 004°60'0 0.0
2017-Sep-25 07:29N 43°24' E 004°60'0 0.0
2017-Sep-25 06:59N 43°24' E 004°60'0 0.0
2017-Sep-25 06:26N 43°24' E 004°60'0 0.0
2017-Sep-25 05:50N 43°24' E 004°60'0 0.0
2017-Sep-25 05:29N 43°24' E 004°60'0 0.0
2017-Sep-25 04:59N 43°24' E 004°60'0 0.0
2017-Sep-25 04:17N 43°24' E 004°60'0 0.0
2017-Sep-25 03:56N 43°24' E 004°60'0 0.0
2017-Sep-25 03:26N 43°24' E 004°60'0 0.0
2017-Sep-25 02:59N 43°24' E 004°60'0 0.0
2017-Sep-25 01:47N 43°24' E 004°60'0 0.0
2017-Sep-25 00:50N 43°24' E 004°60'0 0.0
2017-Sep-25 00:29N 43°24' E 004°60'0 0.0
2017-Sep-24 23:53N 43°24' E 004°60'0 0.0
2017-Sep-24 23:20N 43°24' E 004°60'0 0.0
2017-Sep-24 22:56N 43°24' E 004°60'0 0.0
2017-Sep-24 22:02N 43°24' E 004°60'0 0.1
2017-Sep-24 21:59N 43°24' E 004°60'0 0.0
2017-Sep-24 21:29N 43°24' E 004°60'0 0.0
2017-Sep-24 20:59N 43°24' E 004°60'0 0.0
2017-Sep-24 20:29N 43°24' E 004°60'0 0.0
2017-Sep-24 19:59N 43°24' E 004°60'0 0.0
2017-Sep-24 19:29N 43°24' E 004°60'0 0.0
2017-Sep-24 18:59N 43°24' E 004°60'0 0.0
2017-Sep-24 18:17N 43°24' E 004°60'0 0.0
2017-Sep-24 17:59N 43°24' E 004°60'0 0.0
2017-Sep-24 17:29N 43°24' E 004°60'0 0.0
2017-Sep-24 16:59N 43°24' E 004°60'0 0.0
2017-Sep-24 16:29N 43°24' E 004°60'0 0.0
2017-Sep-24 15:59N 43°24' E 004°60'0 0.0
2017-Sep-24 15:29N 43°24' E 004°60'0 0.0
2017-Sep-24 14:59N 43°24' E 004°60'0 0.0
2017-Sep-24 14:29N 43°24' E 004°60'0 0.0
2017-Sep-24 13:59N 43°24' E 004°60'0 0.0
2017-Sep-24 13:29N 43°24' E 004°60'0 0.0
2017-Sep-24 12:59N 43°24' E 004°60'0 0.0
2017-Sep-24 12:29N 43°24' E 004°60'0 0.0
2017-Sep-24 11:59N 43°24' E 004°60'0 0.0
2017-Sep-24 11:23N 43°24' E 004°60'0 0.0
2017-Sep-24 10:56N 43°24' E 004°60'0 0.0
2017-Sep-24 10:29N 43°24' E 004°60'0 0.0
2017-Sep-24 09:59N 43°24' E 004°60'0 0.0
2017-Sep-24 09:29N 43°24' E 004°60'0 0.0
2017-Sep-24 08:59N 43°24' E 004°60'0 0.0
2017-Sep-24 08:29N 43°24' E 004°60'0 0.0
2017-Sep-24 07:59N 43°24' E 004°60'0 0.0
2017-Sep-24 07:20N 43°24' E 004°60'0 0.0
2017-Sep-24 06:59N 43°24' E 004°60'0 0.0
2017-Sep-24 06:26N 43°24' E 004°60'0 0.0
2017-Sep-24 05:59N 43°24' E 004°60'0 0.0
2017-Sep-24 05:29N 43°24' E 004°60'0 0.0
2017-Sep-24 04:59N 43°24' E 004°60'0 0.0
2017-Sep-24 04:26N 43°24' E 004°60'0 0.0
2017-Sep-24 03:56N 43°24' E 004°60'0 0.0
2017-Sep-24 03:29N 43°24' E 004°60'0 0.0
2017-Sep-24 02:59N 43°24' E 004°60'0 0.0
2017-Sep-24 02:29N 43°24' E 004°60'0 0.0
2017-Sep-24 01:56N 43°24' E 004°60'0 0.0
2017-Sep-24 01:29N 43°24' E 004°60'0 0.0
2017-Sep-24 00:59N 43°24' E 004°60'0 0.0
2017-Sep-24 00:26N 43°24' E 004°60'0 0.0
2017-Sep-23 23:59N 43°24' E 004°60'0 0.0
2017-Sep-23 23:29N 43°24' E 004°60'0 0.0
2017-Sep-23 22:59N 43°24' E 004°60'0 0.0
2017-Sep-23 22:29N 43°24' E 004°60'0 0.0
2017-Sep-23 21:59N 43°24' E 004°60'0 0.0
2017-Sep-23 21:29N 43°24' E 004°60'0 0.0
2017-Sep-23 20:56N 43°24' E 004°60'0 0.0
2017-Sep-23 20:29N 43°24' E 004°60'0 0.0
2017-Sep-23 19:44N 43°24' E 004°60'  

Dump ship's entire track history